Terminal Aerodrome Forecast
Issued by NWS Upton, NY

Home | Current Version | Previous Version | Text Only | Print | Product List | Glossary On
Versions: 1 2 3 4 5 6 7 8 9 10 11 12 13 14 15 16 17 18 19 20 21 22 23 24 25 26 27 28 29 30 31
000
FTUS41 KOKX 280842 AAA
TAFEWR
TAF AMD
KEWR 280842Z 2809/2912 12004KT P6SM FEW070
     FM281400 14006KT P6SM SCT070
     FM281700 15009KT P6SM FEW070 BKN200
     FM290000 12006KT P6SM SCT015 BKN100
     FM290400 10006KT P6SM VCSH BKN030
     FM290600 09008KT P6SM VCSH OVC015
     FM290800 08009KT 4SM -RA OVC015=

USA.gov is the U.S. government's official web portal to all federal, state and local government web resources and services.